Terminal Aerodrome Forecast
Issued by NWS

Home | Current Version | Previous Version | Text Only | Print | Product List | Glossary On
Versions: 1 2 3 4 5 6 7 8 9 10 11 12 13 14 15 16
000
FTUS43 KAPX 231700
TAFMBL
TAF
KMBL 231722Z 2318/2418 17006KT P6SM BKN250
     FM232200 00000KT P6SM OVC070
     FM240800 12003KT 4SM BR OVC005
     FM241400 24004KT P6SM BKN012
      AMD LTD TO CLD VIS AND WIND=

USA.gov is the U.S. government's official web portal to all federal, state and local government web resources and services.